Terminal Aerodrome Forecast
Issued by NWS Sioux Falls, SD

Home | Current Version | Previous Version | Graphics & Text | Print | Product List | Glossary Off
Versions: 1 2 3 4 5 6 7 8 9 10 11 12 13 14 15

000
FTUS43 KFSD 251720
TAFHON
TAF
KHON 251720Z 2518/2618 31012KT P6SM SKC
     FM252300 32008KT P6SM SCT250
     FM260200 33004KT P6SM FEW250
     FM261300 15004KT P6SM BKN250=

USA.gov is the U.S. government's official web portal to all federal, state and local government web resources and services.